sensor_id;sensor_type;location;lat;lon;timestamp;P1;durP1;ratioP1;P2;durP2;ratioP2
83121;SDS011;73002;47.238;9.006;2024-01-15T00:08:01;20.38;;;11.38;;
83121;SDS011;73002;47.238;9.006;2024-01-15T00:18:12;18.63;;;10.85;;
83121;SDS011;73002;47.238;9.006;2024-01-15T00:20:37;19.50;;;10.52;;
83121;SDS011;73002;47.238;9.006;2024-01-15T00:23:03;20.33;;;10.80;;
83121;SDS011;73002;47.238;9.006;2024-01-15T00:25:28;18.75;;;10.55;;
83121;SDS011;73002;47.238;9.006;2024-01-15T00:41:03;18.13;;;10.95;;
83121;SDS011;73002;47.238;9.006;2024-01-15T00:43:32;17.63;;;10.27;;
83121;SDS011;73002;47.238;9.006;2024-01-15T00:45:57;20.88;;;10.55;;
83121;SDS011;73002;47.238;9.006;2024-01-15T00:56:00;19.38;;;10.30;;
83121;SDS011;73002;47.238;9.006;2024-01-15T00:58:28;17.93;;;10.10;;
83121;SDS011;73002;47.238;9.006;2024-01-15T01:00:54;19.13;;;10.38;;
83121;SDS011;73002;47.238;9.006;2024-01-15T01:13:40;13.50;;;7.90;;
83121;SDS011;73002;47.238;9.006;2024-01-15T01:16:09;14.25;;;8.48;;
83121;SDS011;73002;47.238;9.006;2024-01-15T01:18:38;14.75;;;8.38;;
83121;SDS011;73002;47.238;9.006;2024-01-15T01:21:03;13.80;;;7.57;;
83121;SDS011;73002;47.238;9.006;2024-01-15T01:23:29;13.80;;;7.88;;
83121;SDS011;73002;47.238;9.006;2024-01-15T01:25:54;13.60;;;7.53;;
83121;SDS011;73002;47.238;9.006;2024-01-15T01:28:23;11.70;;;7.38;;
83121;SDS011;73002;47.238;9.006;2024-01-15T01:35:59;9.38;;;6.05;;
83121;SDS011;73002;47.238;9.006;2024-01-15T01:38:25;9.00;;;5.15;;
83121;SDS011;73002;47.238;9.006;2024-01-15T01:40:53;9.52;;;6.20;;
83121;SDS011;73002;47.238;9.006;2024-01-15T01:43:18;10.88;;;6.82;;
83121;SDS011;73002;47.238;9.006;2024-01-15T01:45:44;9.63;;;6.20;;
83121;SDS011;73002;47.238;9.006;2024-01-15T01:50:34;9.73;;;6.35;;
83121;SDS011;73002;47.238;9.006;2024-01-15T01:53:01;10.75;;;5.93;;
83121;SDS011;73002;47.238;9.006;2024-01-15T01:55:29;10.32;;;6.32;;
83121;SDS011;73002;47.238;9.006;2024-01-15T01:57:58;9.57;;;6.07;;
83121;SDS011;73002;47.238;9.006;2024-01-15T02:02:59;8.18;;;5.65;;
83121;SDS011;73002;47.238;9.006;2024-01-15T02:10:35;8.30;;;5.38;;
83121;SDS011;73002;47.238;9.006;2024-01-15T02:13:01;9.27;;;5.90;;
83121;SDS011;73002;47.238;9.006;2024-01-15T02:15:27;8.13;;;5.32;;
83121;SDS011;73002;47.238;9.006;2024-01-15T02:18:11;8.63;;;5.50;;
83121;SDS011;73002;47.238;9.006;2024-01-15T02:20:36;9.88;;;5.30;;
83121;SDS011;73002;47.238;9.006;2024-01-15T02:25:41;8.60;;;5.20;;
83121;SDS011;73002;47.238;9.006;2024-01-15T02:28:09;8.55;;;5.28;;
83121;SDS011;73002;47.238;9.006;2024-01-15T02:30:38;9.85;;;5.40;;
83121;SDS011;73002;47.238;9.006;2024-01-15T02:33:05;10.70;;;5.50;;
83121;SDS011;73002;47.238;9.006;2024-01-15T02:35:31;8.95;;;5.53;;
83121;SDS011;73002;47.238;9.006;2024-01-15T02:37:56;10.45;;;5.90;;
83121;SDS011;73002;47.238;9.006;2024-01-15T02:40:22;8.85;;;5.63;;
83121;SDS011;73002;47.238;9.006;2024-01-15T02:42:47;9.18;;;5.63;;
83121;SDS011;73002;47.238;9.006;2024-01-15T02:45:16;10.30;;;5.85;;
83121;SDS011;73002;47.238;9.006;2024-01-15T02:47:42;11.23;;;6.30;;
83121;SDS011;73002;47.238;9.006;2024-01-15T02:50:11;10.98;;;5.68;;
83121;SDS011;73002;47.238;9.006;2024-01-15T03:02:57;10.40;;;6.30;;
83121;SDS011;73002;47.238;9.006;2024-01-15T03:05:22;11.75;;;6.88;;
83121;SDS011;73002;47.238;9.006;2024-01-15T03:07:48;14.13;;;7.80;;
83121;SDS011;73002;47.238;9.006;2024-01-15T03:10:14;12.55;;;7.63;;
83121;SDS011;73002;47.238;9.006;2024-01-15T03:15:09;17.35;;;9.55;;
83121;SDS011;73002;47.238;9.006;2024-01-15T03:17:35;20.92;;;11.05;;
83121;SDS011;73002;47.238;9.006;2024-01-15T03:25:11;34.63;;;15.45;;
83121;SDS011;73002;47.238;9.006;2024-01-15T03:27:36;28.52;;;14.98;;
83121;SDS011;73002;47.238;9.006;2024-01-15T03:30:05;74.28;;;17.63;;
83121;SDS011;73002;47.238;9.006;2024-01-15T03:32:31;36.40;;;16.88;;
83121;SDS011;73002;47.238;9.006;2024-01-15T03:34:56;278.20;;;24.92;;
83121;SDS011;73002;47.238;9.006;2024-01-15T03:39:57;68.78;;;18.52;;
83121;SDS011;73002;47.238;9.006;2024-01-15T03:42:24;69.40;;;19.85;;
83121;SDS011;73002;47.238;9.006;2024-01-15T03:44:50;56.92;;;17.88;;
83121;SDS011;73002;47.238;9.006;2024-01-15T03:47:15;196.82;;;22.67;;
83121;SDS011;73002;47.238;9.006;2024-01-15T03:49:41;494.80;;;30.20;;
83121;SDS011;73002;47.238;9.006;2024-01-15T03:52:06;46.85;;;16.05;;
83121;SDS011;73002;47.238;9.006;2024-01-15T03:54:34;50.10;;;19.27;;
83121;SDS011;73002;47.238;9.006;2024-01-15T03:57:00;43.30;;;18.38;;
83121;SDS011;73002;47.238;9.006;2024-01-15T03:59:26;49.45;;;19.60;;
83121;SDS011;73002;47.238;9.006;2024-01-15T04:01:51;74.07;;;22.42;;
83121;SDS011;73002;47.238;9.006;2024-01-15T04:04:17;137.50;;;24.13;;
83121;SDS011;73002;47.238;9.006;2024-01-15T04:06:43;97.30;;;22.63;;
83121;SDS011;73002;47.238;9.006;2024-01-15T04:09:08;54.15;;;21.35;;
83121;SDS011;73002;47.238;9.006;2024-01-15T04:11:33;54.85;;;21.00;;
83121;SDS011;73002;47.238;9.006;2024-01-15T04:14:02;49.47;;;20.75;;
83121;SDS011;73002;47.238;9.006;2024-01-15T04:16:28;50.92;;;21.05;;
83121;SDS011;73002;47.238;9.006;2024-01-15T04:18:53;46.35;;;20.05;;
83121;SDS011;73002;47.238;9.006;2024-01-15T04:21:18;50.22;;;21.33;;
83121;SDS011;73002;47.238;9.006;2024-01-15T04:23:44;52.92;;;20.80;;
83121;SDS011;73002;47.238;9.006;2024-01-15T04:26:09;44.70;;;19.15;;
83121;SDS011;73002;47.238;9.006;2024-01-15T04:28:36;45.80;;;20.45;;
83121;SDS011;73002;47.238;9.006;2024-01-15T04:31:04;47.75;;;20.55;;
83121;SDS011;73002;47.238;9.006;2024-01-15T04:35:55;45.95;;;19.17;;
83121;SDS011;73002;47.238;9.006;2024-01-15T04:38:20;47.00;;;19.63;;
83121;SDS011;73002;47.238;9.006;2024-01-15T04:40:46;47.63;;;20.85;;
83121;SDS011;73002;47.238;9.006;2024-01-15T04:43:14;47.55;;;19.38;;
83121;SDS011;73002;47.238;9.006;2024-01-15T04:45:39;48.80;;;20.10;;
83121;SDS011;73002;47.238;9.006;2024-01-15T04:48:05;49.92;;;20.52;;
83121;SDS011;73002;47.238;9.006;2024-01-15T04:50:30;49.70;;;20.65;;
83121;SDS011;73002;47.238;9.006;2024-01-15T04:52:58;51.15;;;21.55;;
83121;SDS011;73002;47.238;9.006;2024-01-15T04:55:23;54.00;;;22.55;;
83121;SDS011;73002;47.238;9.006;2024-01-15T04:57:51;48.35;;;19.50;;
83121;SDS011;73002;47.238;9.006;2024-01-15T05:05:27;46.53;;;18.08;;
83121;SDS011;73002;47.238;9.006;2024-01-15T05:07:53;41.70;;;16.15;;
83121;SDS011;73002;47.238;9.006;2024-01-15T05:18:14;45.10;;;17.10;;
83121;SDS011;73002;47.238;9.006;2024-01-15T05:20:39;36.53;;;16.05;;
83121;SDS011;73002;47.238;9.006;2024-01-15T05:23:05;36.80;;;14.57;;
83121;SDS011;73002;47.238;9.006;2024-01-15T05:25:31;39.50;;;16.27;;
83121;SDS011;73002;47.238;9.006;2024-01-15T05:27:56;36.83;;;16.52;;
83121;SDS011;73002;47.238;9.006;2024-01-15T05:30:25;35.65;;;15.70;;
83121;SDS011;73002;47.238;9.006;2024-01-15T05:32:50;33.22;;;14.93;;
83121;SDS011;73002;47.238;9.006;2024-01-15T05:35:16;33.05;;;15.60;;
83121;SDS011;73002;47.238;9.006;2024-01-15T05:45:28;26.52;;;11.95;;
83121;SDS011;73002;47.238;9.006;2024-01-15T05:47:55;30.08;;;13.43;;
83121;SDS011;73002;47.238;9.006;2024-01-15T05:50:20;28.90;;;13.40;;
83121;SDS011;73002;47.238;9.006;2024-01-15T05:52:45;27.10;;;12.68;;
83121;SDS011;73002;47.238;9.006;2024-01-15T05:55:11;30.80;;;13.07;;
83121;SDS011;73002;47.238;9.006;2024-01-15T06:02:47;31.67;;;13.23;;
83121;SDS011;73002;47.238;9.006;2024-01-15T06:05:12;28.10;;;12.57;;
83121;SDS011;73002;47.238;9.006;2024-01-15T06:07:41;28.40;;;12.25;;
83121;SDS011;73002;47.238;9.006;2024-01-15T06:10:07;30.33;;;11.93;;
83121;SDS011;73002;47.238;9.006;2024-01-15T06:12:33;27.15;;;11.65;;
83121;SDS011;73002;47.238;9.006;2024-01-15T06:17:33;24.17;;;10.27;;
83121;SDS011;73002;47.238;9.006;2024-01-15T06:20:02;24.55;;;10.48;;
83121;SDS011;73002;47.238;9.006;2024-01-15T06:22:28;23.50;;;10.13;;
83121;SDS011;73002;47.238;9.006;2024-01-15T06:24:56;25.33;;;10.40;;
83121;SDS011;73002;47.238;9.006;2024-01-15T06:40:17;22.15;;;9.77;;
83121;SDS011;73002;47.238;9.006;2024-01-15T06:42:43;21.75;;;9.38;;
83121;SDS011;73002;47.238;9.006;2024-01-15T06:47:43;21.65;;;9.07;;
83121;SDS011;73002;47.238;9.006;2024-01-15T06:50:09;20.35;;;9.30;;
83121;SDS011;73002;47.238;9.006;2024-01-15T06:55:09;17.70;;;8.02;;
83121;SDS011;73002;47.238;9.006;2024-01-15T06:57:34;21.60;;;8.65;;
83121;SDS011;73002;47.238;9.006;2024-01-15T07:00:04;20.63;;;8.65;;
83121;SDS011;73002;47.238;9.006;2024-01-15T07:18:01;18.08;;;7.97;;
83121;SDS011;73002;47.238;9.006;2024-01-15T07:20:26;15.55;;;7.50;;
83121;SDS011;73002;47.238;9.006;2024-01-15T07:43:33;20.05;;;8.43;;
83121;SDS011;73002;47.238;9.006;2024-01-15T07:46:01;19.67;;;8.73;;
83121;SDS011;73002;47.238;9.006;2024-01-15T07:48:27;20.10;;;8.77;;
83121;SDS011;73002;47.238;9.006;2024-01-15T07:50:53;18.15;;;8.52;;
83121;SDS011;73002;47.238;9.006;2024-01-15T08:47:31;22.95;;;9.80;;
83121;SDS011;73002;47.238;9.006;2024-01-15T08:50:00;22.33;;;9.85;;
83121;SDS011;73002;47.238;9.006;2024-01-15T08:52:26;23.67;;;10.60;;
83121;SDS011;73002;47.238;9.006;2024-01-15T09:05:11;30.40;;;13.35;;
83121;SDS011;73002;47.238;9.006;2024-01-15T09:07:37;28.95;;;12.77;;
83121;SDS011;73002;47.238;9.006;2024-01-15T09:12:37;25.70;;;11.68;;
83121;SDS011;73002;47.238;9.006;2024-01-15T09:15:04;25.77;;;11.93;;
83121;SDS011;73002;47.238;9.006;2024-01-15T09:17:31;26.23;;;11.52;;
83121;SDS011;73002;47.238;9.006;2024-01-15T09:19:57;22.83;;;10.45;;
83121;SDS011;73002;47.238;9.006;2024-01-15T09:22:22;22.42;;;10.30;;
83121;SDS011;73002;47.238;9.006;2024-01-15T09:24:48;22.45;;;10.07;;
83121;SDS011;73002;47.238;9.006;2024-01-15T09:27:13;20.52;;;9.95;;
83121;SDS011;73002;47.238;9.006;2024-01-15T09:29:38;23.27;;;10.32;;
83121;SDS011;73002;47.238;9.006;2024-01-15T09:32:10;21.63;;;10.27;;
83121;SDS011;73002;47.238;9.006;2024-01-15T09:34:36;22.00;;;10.55;;
83121;SDS011;73002;47.238;9.006;2024-01-15T09:37:01;22.85;;;10.75;;
83121;SDS011;73002;47.238;9.006;2024-01-15T09:39:27;24.45;;;10.57;;
83121;SDS011;73002;47.238;9.006;2024-01-15T09:41:53;24.42;;;10.88;;
83121;SDS011;73002;47.238;9.006;2024-01-15T09:44:19;23.73;;;10.35;;
83121;SDS011;73002;47.238;9.006;2024-01-15T09:46:46;24.98;;;11.02;;
83121;SDS011;73002;47.238;9.006;2024-01-15T09:49:17;29.23;;;14.82;;
83121;SDS011;73002;47.238;9.006;2024-01-15T09:51:43;25.85;;;12.20;;
83121;SDS011;73002;47.238;9.006;2024-01-15T09:54:08;24.58;;;11.77;;
83121;SDS011;73002;47.238;9.006;2024-01-15T09:56:34;23.52;;;10.45;;
83121;SDS011;73002;47.238;9.006;2024-01-15T09:59:00;22.20;;;10.43;;
83121;SDS011;73002;47.238;9.006;2024-01-15T10:01:27;23.58;;;11.20;;
83121;SDS011;73002;47.238;9.006;2024-01-15T10:03:54;26.95;;;11.43;;
83121;SDS011;73002;47.238;9.006;2024-01-15T10:06:21;31.77;;;13.82;;
83121;SDS011;73002;47.238;9.006;2024-01-15T10:14:01;22.75;;;10.52;;
83121;SDS011;73002;47.238;9.006;2024-01-15T10:16:26;24.40;;;10.70;;
83121;SDS011;73002;47.238;9.006;2024-01-15T10:31:47;24.15;;;10.82;;
83121;SDS011;73002;47.238;9.006;2024-01-15T10:34:13;24.77;;;10.90;;
83121;SDS011;73002;47.238;9.006;2024-01-15T10:44:15;19.00;;;9.82;;
83121;SDS011;73002;47.238;9.006;2024-01-15T10:46:42;24.30;;;12.02;;
83121;SDS011;73002;47.238;9.006;2024-01-15T10:49:10;21.67;;;11.30;;
83121;SDS011;73002;47.238;9.006;2024-01-15T10:51:37;22.77;;;11.52;;
83121;SDS011;73002;47.238;9.006;2024-01-15T10:54:04;22.58;;;10.98;;
83121;SDS011;73002;47.238;9.006;2024-01-15T10:56:31;23.17;;;11.52;;
83121;SDS011;73002;47.238;9.006;2024-01-15T11:25:13;21.73;;;11.07;;
83121;SDS011;73002;47.238;9.006;2024-01-15T11:27:40;23.85;;;10.80;;
83121;SDS011;73002;47.238;9.006;2024-01-15T11:30:13;25.17;;;11.98;;
83121;SDS011;73002;47.238;9.006;2024-01-15T11:32:40;25.10;;;11.90;;
83121;SDS011;73002;47.238;9.006;2024-01-15T11:45:30;20.95;;;9.98;;
83121;SDS011;73002;47.238;9.006;2024-01-15T11:48:11;20.25;;;10.35;;
83121;SDS011;73002;47.238;9.006;2024-01-15T11:50:42;20.92;;;10.60;;
83121;SDS011;73002;47.238;9.006;2024-01-15T11:53:13;21.67;;;10.73;;
83121;SDS011;73002;47.238;9.006;2024-01-15T11:58:15;21.23;;;10.38;;
83121;SDS011;73002;47.238;9.006;2024-01-15T12:00:44;19.17;;;9.93;;
83121;SDS011;73002;47.238;9.006;2024-01-15T12:03:14;18.35;;;9.25;;
83121;SDS011;73002;47.238;9.006;2024-01-15T12:05:43;18.80;;;8.90;;
83121;SDS011;73002;47.238;9.006;2024-01-15T12:08:08;14.95;;;8.68;;
83121;SDS011;73002;47.238;9.006;2024-01-15T12:25:08;11.95;;;6.50;;
83121;SDS011;73002;47.238;9.006;2024-01-15T12:27:34;10.10;;;6.18;;
83121;SDS011;73002;47.238;9.006;2024-01-15T12:30:00;13.32;;;6.25;;
83121;SDS011;73002;47.238;9.006;2024-01-15T12:32:25;12.95;;;6.35;;
83121;SDS011;73002;47.238;9.006;2024-01-15T12:34:51;11.80;;;6.43;;
83121;SDS011;73002;47.238;9.006;2024-01-15T12:37:19;10.38;;;5.85;;
83121;SDS011;73002;47.238;9.006;2024-01-15T12:44:56;11.55;;;6.03;;
83121;SDS011;73002;47.238;9.006;2024-01-15T12:47:22;11.27;;;6.13;;
83121;SDS011;73002;47.238;9.006;2024-01-15T12:49:47;11.73;;;6.15;;
83121;SDS011;73002;47.238;9.006;2024-01-15T12:52:18;17.38;;;9.60;;
83121;SDS011;73002;47.238;9.006;2024-01-15T12:54:46;48.88;;;21.17;;
83121;SDS011;73002;47.238;9.006;2024-01-15T12:57:12;21.98;;;9.73;;
83121;SDS011;73002;47.238;9.006;2024-01-15T12:59:37;12.27;;;7.40;;
83121;SDS011;73002;47.238;9.006;2024-01-15T13:02:04;12.80;;;6.53;;
83121;SDS011;73002;47.238;9.006;2024-01-15T13:04:30;9.70;;;5.05;;
83121;SDS011;73002;47.238;9.006;2024-01-15T13:22:53;12.82;;;7.00;;
83121;SDS011;73002;47.238;9.006;2024-01-15T13:25:18;11.23;;;6.30;;
83121;SDS011;73002;47.238;9.006;2024-01-15T13:27:45;15.27;;;8.13;;
83121;SDS011;73002;47.238;9.006;2024-01-15T13:30:11;13.75;;;7.35;;
83121;SDS011;73002;47.238;9.006;2024-01-15T13:32:37;11.23;;;6.43;;
83121;SDS011;73002;47.238;9.006;2024-01-15T13:35:02;12.48;;;7.18;;
83121;SDS011;73002;47.238;9.006;2024-01-15T13:37:34;81.97;;;44.08;;
83121;SDS011;73002;47.238;9.006;2024-01-15T13:40:00;62.88;;;36.08;;
83121;SDS011;73002;47.238;9.006;2024-01-15T14:11:22;10.73;;;5.35;;
83121;SDS011;73002;47.238;9.006;2024-01-15T14:13:48;9.80;;;5.47;;
83121;SDS011;73002;47.238;9.006;2024-01-15T14:16:13;9.13;;;5.85;;
83121;SDS011;73002;47.238;9.006;2024-01-15T14:18:39;9.25;;;5.78;;
83121;SDS011;73002;47.238;9.006;2024-01-15T14:21:04;9.32;;;5.85;;
83121;SDS011;73002;47.238;9.006;2024-01-15T14:23:29;8.98;;;5.47;;
83121;SDS011;73002;47.238;9.006;2024-01-15T14:28:30;8.65;;;5.38;;
83121;SDS011;73002;47.238;9.006;2024-01-15T14:30:56;9.10;;;5.32;;
83121;SDS011;73002;47.238;9.006;2024-01-15T14:33:26;8.50;;;5.28;;
83121;SDS011;73002;47.238;9.006;2024-01-15T14:35:52;7.35;;;4.90;;
83121;SDS011;73002;47.238;9.006;2024-01-15T14:38:18;9.15;;;5.43;;
83121;SDS011;73002;47.238;9.006;2024-01-15T14:40:43;9.93;;;5.60;;
83121;SDS011;73002;47.238;9.006;2024-01-15T14:43:09;12.10;;;6.70;;
83121;SDS011;73002;47.238;9.006;2024-01-15T14:45:35;8.80;;;5.22;;
83121;SDS011;73002;47.238;9.006;2024-01-15T14:48:00;8.75;;;5.22;;
83121;SDS011;73002;47.238;9.006;2024-01-15T14:53:01;8.35;;;4.80;;
83121;SDS011;73002;47.238;9.006;2024-01-15T14:55:27;8.32;;;5.30;;
83121;SDS011;73002;47.238;9.006;2024-01-15T14:57:52;8.75;;;5.00;;
83121;SDS011;73002;47.238;9.006;2024-01-15T15:00:18;7.95;;;5.28;;
83121;SDS011;73002;47.238;9.006;2024-01-15T15:02:43;8.40;;;5.72;;
83121;SDS011;73002;47.238;9.006;2024-01-15T15:12:55;12.45;;;6.28;;
83121;SDS011;73002;47.238;9.006;2024-01-15T15:15:20;9.52;;;6.15;;
83121;SDS011;73002;47.238;9.006;2024-01-15T15:17:46;10.52;;;6.53;;
83121;SDS011;73002;47.238;9.006;2024-01-15T15:20:11;13.15;;;6.80;;
83121;SDS011;73002;47.238;9.006;2024-01-15T15:22:37;9.60;;;5.57;;
83121;SDS011;73002;47.238;9.006;2024-01-15T15:32:48;10.65;;;5.95;;
83121;SDS011;73002;47.238;9.006;2024-01-15T15:35:13;10.55;;;6.40;;
83121;SDS011;73002;47.238;9.006;2024-01-15T15:37:39;11.77;;;6.13;;
83121;SDS011;73002;47.238;9.006;2024-01-15T15:40:04;11.02;;;6.05;;
83121;SDS011;73002;47.238;9.006;2024-01-15T15:42:33;9.68;;;5.68;;
83121;SDS011;73002;47.238;9.006;2024-01-15T15:44:59;8.90;;;5.50;;
83121;SDS011;73002;47.238;9.006;2024-01-15T15:47:24;10.32;;;5.93;;
83121;SDS011;73002;47.238;9.006;2024-01-15T15:49:53;9.95;;;5.43;;
83121;SDS011;73002;47.238;9.006;2024-01-15T15:52:19;11.07;;;6.47;;
83121;SDS011;73002;47.238;9.006;2024-01-15T15:54:44;13.55;;;6.78;;
83121;SDS011;73002;47.238;9.006;2024-01-15T15:57:10;12.60;;;7.03;;
83121;SDS011;73002;47.238;9.006;2024-01-15T15:59:35;8.93;;;5.93;;
83121;SDS011;73002;47.238;9.006;2024-01-15T16:02:01;14.70;;;8.32;;
83121;SDS011;73002;47.238;9.006;2024-01-15T16:04:26;19.95;;;9.68;;
83121;SDS011;73002;47.238;9.006;2024-01-15T16:06:52;24.45;;;10.70;;
83121;SDS011;73002;47.238;9.006;2024-01-15T16:09:18;17.15;;;8.25;;
83121;SDS011;73002;47.238;9.006;2024-01-15T16:19:29;15.32;;;8.40;;
83121;SDS011;73002;47.238;9.006;2024-01-15T16:21:54;12.80;;;7.95;;
83121;SDS011;73002;47.238;9.006;2024-01-15T16:24:23;12.85;;;6.18;;
83121;SDS011;73002;47.238;9.006;2024-01-15T16:26:50;11.40;;;6.22;;
83121;SDS011;73002;47.238;9.006;2024-01-15T16:34:25;11.00;;;6.10;;
83121;SDS011;73002;47.238;9.006;2024-01-15T16:36:51;9.68;;;6.20;;
83121;SDS011;73002;47.238;9.006;2024-01-15T16:39:19;12.95;;;6.80;;
83121;SDS011;73002;47.238;9.006;2024-01-15T16:41:44;10.63;;;6.32;;
83121;SDS011;73002;47.238;9.006;2024-01-15T16:44:13;10.32;;;6.03;;
83121;SDS011;73002;47.238;9.006;2024-01-15T16:46:39;10.82;;;6.38;;
83121;SDS011;73002;47.238;9.006;2024-01-15T16:49:04;8.48;;;5.55;;
83121;SDS011;73002;47.238;9.006;2024-01-15T16:51:34;10.88;;;6.93;;
83121;SDS011;73002;47.238;9.006;2024-01-15T16:54:00;13.43;;;7.68;;
83121;SDS011;73002;47.238;9.006;2024-01-15T17:01:36;15.40;;;8.50;;
83121;SDS011;73002;47.238;9.006;2024-01-15T17:04:02;40.60;;;20.77;;
83121;SDS011;73002;47.238;9.006;2024-01-15T17:06:28;38.38;;;20.95;;
83121;SDS011;73002;47.238;9.006;2024-01-15T17:08:54;54.60;;;30.98;;
83121;SDS011;73002;47.238;9.006;2024-01-15T17:11:20;22.73;;;13.43;;
83121;SDS011;73002;47.238;9.006;2024-01-15T17:13:45;24.65;;;14.60;;
83121;SDS011;73002;47.238;9.006;2024-01-15T17:16:11;19.80;;;11.00;;
83121;SDS011;73002;47.238;9.006;2024-01-15T17:18:36;19.60;;;10.35;;
83121;SDS011;73002;47.238;9.006;2024-01-15T17:23:37;19.42;;;10.93;;
83121;SDS011;73002;47.238;9.006;2024-01-15T17:26:02;17.80;;;10.48;;
83121;SDS011;73002;47.238;9.006;2024-01-15T17:28:28;21.58;;;10.77;;
83121;SDS011;73002;47.238;9.006;2024-01-15T17:30:53;23.02;;;13.38;;
83121;SDS011;73002;47.238;9.006;2024-01-15T17:33:19;27.50;;;15.45;;
83121;SDS011;73002;47.238;9.006;2024-01-15T17:35:50;25.98;;;14.23;;
83121;SDS011;73002;47.238;9.006;2024-01-15T17:38:17;22.40;;;12.68;;
83121;SDS011;73002;47.238;9.006;2024-01-15T17:43:18;21.75;;;10.77;;
83121;SDS011;73002;47.238;9.006;2024-01-15T17:45:47;19.60;;;11.18;;
83121;SDS011;73002;47.238;9.006;2024-01-15T17:48:13;20.90;;;11.95;;
83121;SDS011;73002;47.238;9.006;2024-01-15T17:53:13;21.80;;;11.45;;
83121;SDS011;73002;47.238;9.006;2024-01-15T17:55:39;24.25;;;13.95;;
83121;SDS011;73002;47.238;9.006;2024-01-15T17:58:08;35.20;;;18.75;;
83121;SDS011;73002;47.238;9.006;2024-01-15T18:00:33;42.33;;;23.35;;
83121;SDS011;73002;47.238;9.006;2024-01-15T18:02:59;29.25;;;15.85;;
83121;SDS011;73002;47.238;9.006;2024-01-15T18:05:25;30.25;;;15.65;;
83121;SDS011;73002;47.238;9.006;2024-01-15T18:07:50;26.10;;;14.55;;
83121;SDS011;73002;47.238;9.006;2024-01-15T18:10:16;21.90;;;12.65;;
83121;SDS011;73002;47.238;9.006;2024-01-15T18:12:41;23.00;;;11.65;;
83121;SDS011;73002;47.238;9.006;2024-01-15T18:15:07;37.70;;;19.38;;
83121;SDS011;73002;47.238;9.006;2024-01-15T18:38:07;38.78;;;27.38;;
83121;SDS011;73002;47.238;9.006;2024-01-15T18:40:34;44.28;;;32.28;;
83121;SDS011;73002;47.238;9.006;2024-01-15T18:43:01;34.55;;;23.10;;
83121;SDS011;73002;47.238;9.006;2024-01-15T18:45:27;39.17;;;27.35;;
83121;SDS011;73002;47.238;9.006;2024-01-15T18:47:53;36.78;;;19.80;;
83121;SDS011;73002;47.238;9.006;2024-01-15T18:50:19;23.05;;;12.07;;
83121;SDS011;73002;47.238;9.006;2024-01-15T18:52:45;21.42;;;12.48;;
83121;SDS011;73002;47.238;9.006;2024-01-15T18:55:13;30.08;;;15.18;;
83121;SDS011;73002;47.238;9.006;2024-01-15T18:57:41;18.95;;;9.80;;
83121;SDS011;73002;47.238;9.006;2024-01-15T19:00:07;10.57;;;6.30;;
83121;SDS011;73002;47.238;9.006;2024-01-15T19:05:08;9.82;;;4.93;;
83121;SDS011;73002;47.238;9.006;2024-01-15T19:07:33;9.10;;;5.10;;
83121;SDS011;73002;47.238;9.006;2024-01-15T19:09:59;8.15;;;4.68;;
83121;SDS011;73002;47.238;9.006;2024-01-15T19:17:35;7.03;;;4.65;;
83121;SDS011;73002;47.238;9.006;2024-01-15T19:20:02;8.75;;;5.20;;
83121;SDS011;73002;47.238;9.006;2024-01-15T19:22:27;10.05;;;4.93;;
83121;SDS011;73002;47.238;9.006;2024-01-15T19:24:53;8.40;;;4.95;;
83121;SDS011;73002;47.238;9.006;2024-01-15T19:27:18;9.60;;;5.45;;
83121;SDS011;73002;47.238;9.006;2024-01-15T19:34:54;6.95;;;4.32;;
83121;SDS011;73002;47.238;9.006;2024-01-15T19:43:11;10.13;;;5.22;;
83121;SDS011;73002;47.238;9.006;2024-01-15T19:45:36;7.97;;;5.15;;
83121;SDS011;73002;47.238;9.006;2024-01-15T19:48:02;8.25;;;4.88;;
83121;SDS011;73002;47.238;9.006;2024-01-15T19:50:28;9.95;;;5.70;;
83121;SDS011;73002;47.238;9.006;2024-01-15T19:52:57;7.35;;;4.93;;
83121;SDS011;73002;47.238;9.006;2024-01-15T21:10:37;9.85;;;6.03;;
83121;SDS011;73002;47.238;9.006;2024-01-15T21:20:49;12.27;;;6.38;;
83121;SDS011;73002;47.238;9.006;2024-01-15T21:29:06;12.85;;;6.40;;
83121;SDS011;73002;47.238;9.006;2024-01-15T21:39:17;12.90;;;7.03;;
83121;SDS011;73002;47.238;9.006;2024-01-15T21:41:44;12.00;;;6.50;;
83121;SDS011;73002;47.238;9.006;2024-01-15T21:44:14;11.27;;;6.40;;
83121;SDS011;73002;47.238;9.006;2024-01-15T21:46:39;12.32;;;6.80;;
83121;SDS011;73002;47.238;9.006;2024-01-15T21:49:05;12.55;;;6.72;;
83121;SDS011;73002;47.238;9.006;2024-01-15T21:59:16;11.45;;;6.32;;
83121;SDS011;73002;47.238;9.006;2024-01-15T22:06:42;12.63;;;6.97;;
83121;SDS011;73002;47.238;9.006;2024-01-15T22:09:10;12.25;;;6.70;;
83121;SDS011;73002;47.238;9.006;2024-01-15T22:11:36;12.57;;;6.53;;
83121;SDS011;73002;47.238;9.006;2024-01-15T22:26:57;13.93;;;7.70;;
